Humidity-temperature Sensor

Selected Measurement Type: Relative Humidity

 
Relative Humidity [%]     6 entries per hour
Showing data from 12/4/2022 (00:00:00 Z) to 12/1/2022 (00:01:00 Z)
Previous Next [ Day | 3-Days | 7-Days ]
First Last
Prev [ Day | 3-Days | 7-Days ] Next
First Last

Start Time:     :
End Time:     :     
Time (in GMT) :00 :50 :40 :30 :20 :10
Previous Next [ Day | 3-Days | 7-Days ]
First Last
Prev [ Day | 3-Days | 7-Days ] Next
First Last


123 => good data
MM => data is determined as missing
-- => data not received/configured
Back to Top Back to Top
12/4/2022 00:00 to 23:10 91.40 91.46 91.64 92.14 92.81 93.06
12/3/2022 23:00 to 22:10 93.06 93.43 93.08 92.42 91.50 90.51
12/3/2022 22:00 to 21:10 90.59 90.39 90.78 90.82 90.98 90.74
12/3/2022 21:00 to 20:10 90.41 90.74 90.68 90.76 90.68 90.43
12/3/2022 20:00 to 19:10 90.12 88.83 88.33 89.11 89.50 90.47
12/3/2022 19:00 to 18:10 90.90 91.03 90.47 89.79 90.10 89.81
12/3/2022 18:00 to 17:10 90.22 90.49 90.86 90.72 90.55 90.78
12/3/2022 17:00 to 16:10 90.82 91.07 91.15 91.07 91.09 91.07
12/3/2022 16:00 to 15:10 91.29 91.44 91.93 92.48 92.61 92.32
12/3/2022 15:00 to 14:10 91.99 91.68 91.23 90.59 90.98 90.90
12/3/2022 14:00 to 13:10 91.15 91.31 91.74 91.70 91.13 90.90
12/3/2022 13:00 to 12:10 90.27 89.77 90.20 90.70 91.33 91.50
12/3/2022 12:00 to 11:10 91.68 91.40 91.62 91.74 91.81 92.53
12/3/2022 11:00 to 10:10 92.50 91.89 90.51 90.41 91.00 90.94
12/3/2022 10:00 to 9:10 90.31 90.41 90.80 91.11 91.40 90.72
12/3/2022 09:00 to 8:10 89.90 90.10 90.39 90.10 89.61 89.13
12/3/2022 08:00 to 7:10 88.91 89.09 88.91 89.03 89.77 90.53
12/3/2022 07:00 to 6:10 91.37 92.16 93.35 94.46 95.46 97.01
12/3/2022 06:00 to 5:10 97.60 97.64 97.48 97.31 96.74 96.49
12/3/2022 05:00 to 4:10 95.69 94.37 92.83 91.15 90.49 90.39
12/3/2022 04:00 to 3:10 90.74 91.23 91.13 91.27 90.88 90.74
12/3/2022 03:00 to 2:10 90.45 90.47 91.19 91.91 92.46 92.75
12/3/2022 02:00 to 1:10 92.83 93.20 93.41 93.78 93.55 92.73
12/3/2022 01:00 to 0:10 91.74 90.18 90.20 90.78 91.60 92.26
12/3/2022 00:00 to 23:10 93.10 93.20 92.71 91.89 91.70 92.30
12/2/2022 23:00 to 22:10 93.84 95.90 97.23 97.77 97.93 97.79
12/2/2022 22:00 to 21:10 97.64 97.62 96.92 96.27 95.30 94.83
12/2/2022 21:00 to 20:10 94.89 95.44 95.16 94.27 93.16 93.59
12/2/2022 20:00 to 19:10 93.70 93.53 93.64 94.19 94.11 93.61
12/2/2022 19:00 to 18:10 93.57 92.98 91.68 90.33 89.67 89.65
12/2/2022 18:00 to 17:10 90.10 89.75 89.28 89.38 89.79 89.38
12/2/2022 17:00 to 16:10 89.32 89.28 89.32 89.69 90.39 91.11
12/2/2022 16:00 to 15:10 91.62 91.77 91.85 91.42 90.53 89.75
12/2/2022 15:00 to 14:10 89.65 89.81 89.83 89.69 89.92 90.27
12/2/2022 14:00 to 13:10 91.09 91.56 91.85 91.62 91.33 91.85
12/2/2022 13:00 to 12:10 92.98 93.43 93.74 93.86 94.21 94.09
12/2/2022 12:00 to 11:10 94.11 94.27 94.74 95.03 95.40 96.04
12/2/2022 11:00 to 10:10 96.72 97.48 98.77 99.31 100.03 100.56
12/2/2022 10:00 to 9:10 100.83 100.81 100.85 100.77 100.72 100.91
12/2/2022 09:00 to 8:10 -- -- -- -- -- --
12/2/2022 08:00 to 7:10 98.71 97.95 97.13 96.14 96.02 96.12
12/2/2022 07:00 to 6:10 96.51 97.33 98.22 98.69 99.06 99.43
12/2/2022 06:00 to 5:10 99.66 100.15 100.33 100.52 100.54 100.27
12/2/2022 05:00 to 4:10 99.80 99.74 99.31 98.90 98.48 97.81
12/2/2022 04:00 to 3:10 97.44 97.01 96.18 95.57 95.07 94.79
12/2/2022 03:00 to 2:10 94.48 94.48 94.46 94.37 93.90 93.70
12/2/2022 02:00 to 1:10 93.88 93.92 93.59 93.92 94.05 94.11
12/2/2022 01:00 to 0:10 93.76 93.90 93.92 94.05 94.23 94.31
12/2/2022 00:00 to 23:10 94.48 94.48 94.56 94.97 94.95 94.60
12/1/2022 23:00 to 22:10 94.77 94.58 94.60 94.37 94.07 93.55
12/1/2022 22:00 to 21:10 93.31 93.90 94.48 94.72 94.91 95.18
12/1/2022 21:00 to 20:10 95.53 95.85 95.65 95.75 95.44 95.03
12/1/2022 20:00 to 19:10 94.99 94.42 94.23 94.05 94.05 94.17
12/1/2022 19:00 to 18:10 94.40 94.83 95.18 95.34 95.38 95.69
12/1/2022 18:00 to 17:10 95.67 95.28 94.93 94.99 95.44 96.18
12/1/2022 17:00 to 16:10 96.57 96.59 96.70 96.59 96.61 97.05
12/1/2022 16:00 to 15:10 97.23 97.42 97.87 97.64 97.74 98.42
12/1/2022 15:00 to 14:10 98.57 99.35 99.53 100.27 100.44 100.85
12/1/2022 14:00 to 13:10 100.91 100.91 100.91 100.91 100.91 100.91
12/1/2022 13:00 to 12:10 100.91 100.91 100.91 100.91 100.91 100.91
12/1/2022 12:00 to 11:10 100.91 100.91 100.91 100.91 100.91 100.91
12/1/2022 11:00 to 10:10 100.91 100.91 100.91 100.91 100.91 100.91
12/1/2022 10:00 to 9:10 100.91 100.91 100.91 100.91 100.91 100.91
12/1/2022 09:00 to 8:10 100.91 100.87 100.75 100.46 100.44 100.13
12/1/2022 08:00 to 7:10 100.27 99.98 99.68 99.43 99.31 99.22
12/1/2022 07:00 to 6:10 98.92 99.02 99.10 99.08 99.41 99.31
12/1/2022 06:00 to 5:10 99.00 99.16 99.18 98.75 98.81 98.65
12/1/2022 05:00 to 4:10 98.65 98.83 98.85 98.85 98.75 98.77
12/1/2022 04:00 to 3:10 98.85 98.67 98.65 98.44 98.38 98.40
12/1/2022 03:00 to 2:10 98.51 98.71 98.57 99.00 99.16 99.59
12/1/2022 02:00 to 1:10 99.84 99.94 100.19 100.11 100.44 100.46
12/1/2022 01:00 to 0:10 100.44 100.54 100.54 100.72 100.68 100.70